Terminal Aerodrome Forecast
Issued by NWS

Home | Current Version | Previous Version | Text Only | Print | Product List | Glossary On
Versions: 1 2 3 4 5 6 7 8 9 10 11 12
118
FTUS45 KRIW 091122
TAFCPR
TAF
KCPR 091122Z 0912/1012 21017G25KT P6SM FEW250
     FM100000 21015KT P6SM FEW250
     FM100600 22020G30KT P6SM FEW250=

USA.gov is the U.S. government's official web portal to all federal, state and local government web resources and services.